createdAt,value
2018-09-27T00:01:27.788Z,22.97
2018-09-27T00:03:55.847Z,24.10
2018-09-27T00:06:23.928Z,24.63
2018-09-27T00:08:51.979Z,24.30
2018-09-27T00:11:20.042Z,25.50
2018-09-27T00:13:48.174Z,25.27
2018-09-27T00:16:16.227Z,25.60
2018-09-27T00:18:44.290Z,26.80
2018-09-27T00:21:12.336Z,27.63
2018-09-27T00:23:40.391Z,26.83
2018-09-27T00:26:08.628Z,27.97
2018-09-27T00:28:36.692Z,27.07
2018-09-27T00:31:04.731Z,27.40
2018-09-27T00:33:32.814Z,27.93
2018-09-27T00:36:00.835Z,27.50
2018-09-27T00:38:28.874Z,27.90
2018-09-27T00:40:56.922Z,28.50
2018-09-27T00:43:24.954Z,29.27
2018-09-27T00:45:52.988Z,29.60
2018-09-27T00:48:21.059Z,29.27
2018-09-27T00:50:49.126Z,28.10
2018-09-27T00:53:17.254Z,28.63
2018-09-27T00:55:45.384Z,28.03
2018-09-27T00:58:13.472Z,29.77
2018-09-27T01:00:41.552Z,29.93
2018-09-27T01:03:09.653Z,30.07
2018-09-27T01:05:38.392Z,29.73
2018-09-27T01:08:06.676Z,30.60
2018-09-27T01:10:34.775Z,31.47
2018-09-27T01:13:03.017Z,33.13
2018-09-27T01:15:31.099Z,31.37
2018-09-27T01:17:59.282Z,32.67
2018-09-27T01:20:27.371Z,31.73
2018-09-27T01:22:55.895Z,32.07
2018-09-27T01:25:24.007Z,32.33
2018-09-27T01:27:52.106Z,34.73
2018-09-27T01:30:20.258Z,32.30
2018-09-27T01:32:48.402Z,32.63
2018-09-27T01:35:16.513Z,33.47
2018-09-27T01:37:44.594Z,33.50
2018-09-27T01:40:12.722Z,32.33
2018-09-27T01:42:40.815Z,32.90
2018-09-27T01:45:08.890Z,32.37
2018-09-27T01:47:37.000Z,34.90
2018-09-27T01:50:05.153Z,32.63
2018-09-27T01:52:33.310Z,33.20
2018-09-27T01:55:01.484Z,33.57
2018-09-27T01:57:29.606Z,33.77
2018-09-27T01:59:57.722Z,31.53
2018-09-27T02:02:25.819Z,31.00
2018-09-27T02:04:53.955Z,30.83
2018-09-27T02:07:22.068Z,29.53
2018-09-27T02:09:50.239Z,27.93
2018-09-27T02:12:18.379Z,28.67
2018-09-27T02:14:46.470Z,28.93
2018-09-27T02:17:14.657Z,27.00
2018-09-27T02:19:42.843Z,28.77
2018-09-27T02:22:11.005Z,27.50
2018-09-27T02:24:39.186Z,26.67
2018-09-27T02:27:07.330Z,26.33
2018-09-27T02:29:35.411Z,26.53
2018-09-27T02:32:03.497Z,25.20
2018-09-27T02:34:31.630Z,25.73
2018-09-27T02:36:59.810Z,24.23
2018-09-27T02:39:27.900Z,22.97
2018-09-27T02:41:55.968Z,23.60
2018-09-27T02:44:24.139Z,23.20
2018-09-27T02:46:52.231Z,23.77
2018-09-27T02:49:20.359Z,23.73
2018-09-27T02:51:48.579Z,23.17
2018-09-27T02:54:16.759Z,22.80
2018-09-27T02:56:44.884Z,23.13
2018-09-27T02:59:13.007Z,23.20
2018-09-27T03:01:41.177Z,24.77
2018-09-27T03:04:09.309Z,22.67
2018-09-27T03:06:37.436Z,23.40
2018-09-27T03:09:07.480Z,23.47
2018-09-27T03:11:35.577Z,22.87
2018-09-27T03:14:03.729Z,22.73
2018-09-27T03:16:31.820Z,22.83
2018-09-27T03:18:59.921Z,22.70
2018-09-27T03:21:28.011Z,24.20
2018-09-27T03:23:56.180Z,22.93
2018-09-27T03:26:24.330Z,25.33
2018-09-27T03:28:52.532Z,24.27
2018-09-27T03:31:20.762Z,22.90
2018-09-27T03:33:48.857Z,23.50
2018-09-27T03:36:16.996Z,23.53
2018-09-27T03:38:45.224Z,23.93
2018-09-27T03:41:13.386Z,23.93
2018-09-27T03:43:41.842Z,23.70
2018-09-27T03:46:10.048Z,23.03
2018-09-27T03:48:38.228Z,23.87
2018-09-27T03:51:06.464Z,24.80
2018-09-27T03:53:34.556Z,24.73
2018-09-27T03:56:02.751Z,24.33
2018-09-27T03:58:30.875Z,24.53
2018-09-27T04:00:58.995Z,24.43
2018-09-27T04:03:27.210Z,24.40
2018-09-27T04:05:55.322Z,24.13
2018-09-27T04:08:23.491Z,24.57
2018-09-27T04:10:51.580Z,25.57
2018-09-27T04:13:19.762Z,26.50
2018-09-27T04:15:47.992Z,24.43
2018-09-27T04:18:16.099Z,24.97
2018-09-27T04:20:49.663Z,26.40
2018-09-27T04:23:18.404Z,26.03
2018-09-27T04:25:46.523Z,26.17
2018-09-27T04:28:14.593Z,26.17
2018-09-27T04:30:42.716Z,26.80
2018-09-27T04:33:10.843Z,26.53
2018-09-27T04:35:38.922Z,27.97
2018-09-27T04:38:07.275Z,27.43
2018-09-27T04:40:35.355Z,27.40
2018-09-27T04:43:03.822Z,26.60
2018-09-27T04:45:31.918Z,25.13
2018-09-27T04:48:00.024Z,26.10
2018-09-27T04:50:28.152Z,25.10
2018-09-27T04:52:56.239Z,25.53
2018-09-27T04:55:24.370Z,24.93
2018-09-27T04:57:52.466Z,26.03
2018-09-27T05:00:20.572Z,26.37
2018-09-27T05:02:48.711Z,26.97
2018-09-27T05:05:16.810Z,26.67
2018-09-27T05:07:44.991Z,26.97
2018-09-27T05:10:13.070Z,25.23
2018-09-27T05:12:41.212Z,26.07
2018-09-27T05:15:09.307Z,26.70
2018-09-27T05:17:37.392Z,26.40
2018-09-27T05:20:05.463Z,26.07
2018-09-27T05:22:33.556Z,25.37
2018-09-27T05:25:01.761Z,27.07
2018-09-27T05:27:29.904Z,25.37
2018-09-27T05:29:58.003Z,25.70
2018-09-27T05:32:26.104Z,26.27
2018-09-27T05:34:54.199Z,26.93
2018-09-27T05:37:22.299Z,25.80
2018-09-27T05:39:50.376Z,26.53
2018-09-27T05:42:18.509Z,26.93
2018-09-27T05:44:46.639Z,26.57
2018-09-27T05:47:14.739Z,27.60
2018-09-27T05:49:42.854Z,27.87
2018-09-27T05:52:10.935Z,27.53
2018-09-27T05:54:39.022Z,25.90
2018-09-27T05:57:07.118Z,26.93
2018-09-27T05:59:35.262Z,26.30
2018-09-27T06:02:03.405Z,26.63
2018-09-27T06:04:31.504Z,25.80
2018-09-27T06:06:59.682Z,27.23
2018-09-27T06:09:27.825Z,26.00
2018-09-27T06:11:55.858Z,25.57
2018-09-27T06:14:23.938Z,27.37
2018-09-27T06:16:52.048Z,27.77
2018-09-27T06:19:20.203Z,27.37
2018-09-27T06:21:48.324Z,25.70
2018-09-27T06:24:16.427Z,26.93
2018-09-27T06:26:44.594Z,26.67
2018-09-27T06:29:12.694Z,26.53
2018-09-27T06:31:40.837Z,25.90
2018-09-27T06:34:09.022Z,25.17
2018-09-27T06:36:37.184Z,25.17
2018-09-27T06:39:06.448Z,27.13
2018-09-27T06:41:34.595Z,26.13
2018-09-27T06:44:02.751Z,24.60
2018-09-27T06:46:30.997Z,24.80
2018-09-27T06:48:59.084Z,24.97
2018-09-27T06:51:27.253Z,24.20
2018-09-27T06:53:55.383Z,23.23
2018-09-27T06:56:23.494Z,23.17
2018-09-27T06:58:51.583Z,22.30
2018-09-27T07:01:19.703Z,23.53
2018-09-27T07:03:47.898Z,22.90
2018-09-27T07:06:16.017Z,23.17
2018-09-27T07:08:44.174Z,23.50
2018-09-27T07:11:12.344Z,22.30
2018-09-27T07:13:40.503Z,22.13
2018-09-27T07:16:08.643Z,21.63
2018-09-27T07:18:36.777Z,22.80
2018-09-27T07:21:04.923Z,21.00
2018-09-27T07:23:33.012Z,21.47
2018-09-27T07:26:01.448Z,20.87
2018-09-27T07:28:29.631Z,20.57
2018-09-27T07:30:57.740Z,19.47
2018-09-27T07:33:25.860Z,19.67
2018-09-27T07:35:53.952Z,19.33
2018-09-27T07:38:22.197Z,19.43
2018-09-27T07:40:50.238Z,18.47
2018-09-27T07:43:18.377Z,18.33
2018-09-27T07:45:46.539Z,17.47
2018-09-27T07:48:14.706Z,17.80
2018-09-27T07:50:42.877Z,18.77
2018-09-27T07:53:10.949Z,18.60
2018-09-27T07:55:39.132Z,18.23
2018-09-27T07:58:07.619Z,17.80
2018-09-27T08:00:35.694Z,17.73
2018-09-27T08:03:04.153Z,17.70
2018-09-27T08:05:32.281Z,18.40
2018-09-27T08:08:00.453Z,17.03
2018-09-27T08:10:28.538Z,16.70
2018-09-27T08:12:56.688Z,18.07
2018-09-27T08:15:24.767Z,16.97
2018-09-27T08:17:52.924Z,16.13
2018-09-27T08:20:21.493Z,15.40
2018-09-27T08:22:49.882Z,15.77
2018-09-27T08:25:17.972Z,15.03
2018-09-27T08:27:46.131Z,15.57
2018-09-27T08:30:14.207Z,13.93
2018-09-27T08:32:42.311Z,13.73
2018-09-27T08:35:10.759Z,13.73
2018-09-27T08:37:38.924Z,14.23
2018-09-27T08:40:07.091Z,13.83
2018-09-27T08:42:35.249Z,14.17
2018-09-27T08:45:03.588Z,13.73
2018-09-27T08:47:31.517Z,13.77
2018-09-27T08:49:59.733Z,14.13
2018-09-27T08:52:27.879Z,14.37
2018-09-27T08:54:56.063Z,13.60
2018-09-27T08:57:24.266Z,13.67
2018-09-27T08:59:52.402Z,14.27
2018-09-27T09:02:20.544Z,14.77
2018-09-27T09:04:48.717Z,15.70
2018-09-27T09:07:16.817Z,14.10
2018-09-27T09:09:44.963Z,13.60
2018-09-27T09:12:13.115Z,12.23
2018-09-27T09:14:41.210Z,13.17
2018-09-27T09:17:09.298Z,13.23
2018-09-27T09:19:37.448Z,12.67
2018-09-27T09:22:05.658Z,12.30
2018-09-27T09:24:33.800Z,13.20
2018-09-27T09:27:01.906Z,11.20
2018-09-27T09:29:30.079Z,11.20
2018-09-27T09:31:58.166Z,11.60
2018-09-27T09:34:26.506Z,11.10
2018-09-27T09:36:54.599Z,11.57
2018-09-27T09:39:22.754Z,10.83
2018-09-27T09:41:50.862Z,10.00
2018-09-27T09:44:18.963Z,9.60
2018-09-27T09:46:47.119Z,10.00
2018-09-27T09:49:15.230Z,10.67
2018-09-27T09:51:43.404Z,9.77
2018-09-27T09:54:11.505Z,9.70
2018-09-27T09:56:39.789Z,9.90
2018-09-27T09:59:07.946Z,8.97
2018-09-27T10:01:36.048Z,9.13
2018-09-27T10:04:04.183Z,10.00
2018-09-27T10:06:32.435Z,8.70
2018-09-27T10:09:00.585Z,8.53
2018-09-27T10:11:28.799Z,8.47
2018-09-27T10:13:57.821Z,9.50
2018-09-27T10:16:25.972Z,9.53
2018-09-27T10:18:54.166Z,9.13
2018-09-27T10:21:22.356Z,8.73
2018-09-27T10:23:50.491Z,7.70
2018-09-27T10:26:18.593Z,6.60
2018-09-27T10:28:46.739Z,6.73
2018-09-27T10:31:14.948Z,6.33
2018-09-27T10:33:43.140Z,7.50
2018-09-27T10:36:11.303Z,7.00
2018-09-27T10:38:39.519Z,7.00
2018-09-27T10:41:07.640Z,6.47
2018-09-27T10:43:35.810Z,6.40
2018-09-27T10:46:03.956Z,6.00
2018-09-27T10:48:32.143Z,5.47
2018-09-27T10:51:00.331Z,5.80
2018-09-27T10:53:28.626Z,5.97
2018-09-27T10:55:56.766Z,5.50
2018-09-27T10:58:25.078Z,4.83
2018-09-27T11:00:53.199Z,5.57
2018-09-27T11:03:21.300Z,5.23
2018-09-27T11:05:49.507Z,5.40
2018-09-27T11:08:17.967Z,5.60
2018-09-27T11:10:46.095Z,5.37
2018-09-27T11:13:14.203Z,5.30
2018-09-27T11:15:42.370Z,5.77
2018-09-27T11:18:10.463Z,5.77
2018-09-27T11:20:38.604Z,6.07
2018-09-27T11:23:06.837Z,5.87
2018-09-27T11:25:34.959Z,5.70
2018-09-27T11:28:03.111Z,5.20
2018-09-27T11:30:33.266Z,4.87
2018-09-27T11:33:01.455Z,4.73
2018-09-27T11:35:29.514Z,4.83
2018-09-27T11:37:57.665Z,4.27
2018-09-27T11:40:25.861Z,5.03
2018-09-27T11:42:54.079Z,4.57
2018-09-27T11:45:22.131Z,5.60
2018-09-27T11:47:50.233Z,4.80
2018-09-27T11:50:18.410Z,4.83
2018-09-27T11:52:46.459Z,4.40
2018-09-27T11:55:14.569Z,4.53
2018-09-27T11:57:42.670Z,4.20
2018-09-27T12:00:10.827Z,4.93
2018-09-27T12:02:39.203Z,5.20
2018-09-27T12:05:07.693Z,5.13
2018-09-27T12:07:36.171Z,5.03
2018-09-27T12:10:04.556Z,4.60
2018-09-27T12:12:33.065Z,4.43
2018-09-27T12:15:01.475Z,4.67
2018-09-27T12:17:29.939Z,4.37
2018-09-27T12:19:58.441Z,5.10
2018-09-27T12:22:26.849Z,4.87
2018-09-27T12:24:55.354Z,5.10
2018-09-27T12:27:23.849Z,4.57
2018-09-27T12:29:52.261Z,5.03
2018-09-27T12:32:20.692Z,5.60
2018-09-27T12:34:49.351Z,5.33
2018-09-27T12:37:17.759Z,5.20
2018-09-27T12:39:46.324Z,5.20
2018-09-27T12:42:14.796Z,5.83
2018-09-27T12:44:43.060Z,5.80
2018-09-27T12:47:11.507Z,6.00
2018-09-27T12:49:39.904Z,6.20
2018-09-27T12:52:08.648Z,6.57
2018-09-27T12:54:36.751Z,6.03
2018-09-27T12:57:05.484Z,5.67
2018-09-27T12:59:33.896Z,6.00
2018-09-27T13:02:02.439Z,5.43
2018-09-27T13:04:30.732Z,5.27
2018-09-27T13:06:59.228Z,5.10
2018-09-27T13:09:27.939Z,4.83
2018-09-27T13:11:56.290Z,4.97
2018-09-27T13:14:25.331Z,5.37
2018-09-27T13:16:53.753Z,5.60
2018-09-27T13:19:22.327Z,5.87
2018-09-27T13:21:50.755Z,5.20
2018-09-27T13:24:19.184Z,4.63
2018-09-27T13:26:47.704Z,5.37
2018-09-27T13:29:16.163Z,5.47
2018-09-27T13:31:44.595Z,5.20
2018-09-27T13:34:13.031Z,5.00
2018-09-27T13:36:41.518Z,6.30
2018-09-27T13:39:10.592Z,5.47
2018-09-27T13:41:40.099Z,5.67
2018-09-27T13:44:08.904Z,5.77
2018-09-27T13:46:37.654Z,5.67
2018-09-27T13:49:06.293Z,6.00
2018-09-27T13:51:34.756Z,6.20
2018-09-27T13:54:03.180Z,6.03
2018-09-27T13:56:31.613Z,6.30
2018-09-27T13:59:00.040Z,7.00
2018-09-27T14:01:28.512Z,6.63
2018-09-27T14:03:57.362Z,5.67
2018-09-27T14:06:25.830Z,6.17
2018-09-27T14:08:54.284Z,6.30
2018-09-27T14:11:22.769Z,6.93
2018-09-27T14:13:51.200Z,5.97
2018-09-27T14:16:19.731Z,6.37
2018-09-27T14:18:48.291Z,7.67
2018-09-27T14:21:16.814Z,6.80
2018-09-27T14:23:45.265Z,7.07
2018-09-27T14:26:13.692Z,7.17
2018-09-27T14:28:42.132Z,7.50
2018-09-27T14:31:11.128Z,7.10
2018-09-27T14:33:39.669Z,7.63
2018-09-27T14:36:08.111Z,7.07
2018-09-27T14:38:36.564Z,6.90
2018-09-27T14:41:05.111Z,6.97
2018-09-27T14:43:33.596Z,6.90
2018-09-27T14:46:02.033Z,6.70
2018-09-27T14:48:30.720Z,6.97
2018-09-27T14:50:59.712Z,6.60
2018-09-27T14:53:28.174Z,7.63
2018-09-27T14:55:56.571Z,7.63
2018-09-27T14:58:25.321Z,7.23
2018-09-27T15:00:53.804Z,7.50
2018-09-27T15:03:22.523Z,8.67
2018-09-27T15:05:51.747Z,8.47
2018-09-27T15:08:20.216Z,8.93
2018-09-27T15:10:48.775Z,8.20
2018-09-27T15:13:18.120Z,8.97
2018-09-27T15:15:46.599Z,9.80
2018-09-27T15:18:15.029Z,11.67
2018-09-27T15:20:43.536Z,11.73
2018-09-27T15:23:12.584Z,10.43
2018-09-27T15:25:41.078Z,13.13
2018-09-27T15:28:09.603Z,12.40
2018-09-27T15:30:38.071Z,12.67
2018-09-27T15:33:06.616Z,13.07
2018-09-27T15:35:35.096Z,13.10
2018-09-27T15:38:03.620Z,13.40
2018-09-27T15:40:32.084Z,12.50
2018-09-27T15:43:00.549Z,11.37
2018-09-27T15:45:29.012Z,12.10
2018-09-27T15:47:57.431Z,11.90
2018-09-27T15:50:25.908Z,11.50
2018-09-27T15:52:54.463Z,10.83
2018-09-27T15:55:22.997Z,11.07
2018-09-27T15:57:51.420Z,10.87
2018-09-27T16:00:19.567Z,10.13
2018-09-27T16:02:47.766Z,9.47
2018-09-27T16:05:16.331Z,9.80
2018-09-27T16:07:44.606Z,9.63
2018-09-27T16:10:12.761Z,7.40
2018-09-27T16:12:40.963Z,7.80
2018-09-27T16:15:09.196Z,7.63
2018-09-27T16:17:37.428Z,5.87
2018-09-27T16:20:05.727Z,5.87
2018-09-27T16:22:33.871Z,6.00
2018-09-27T16:25:02.041Z,4.73
2018-09-27T16:27:30.180Z,4.20
2018-09-27T16:29:58.302Z,3.30
2018-09-27T16:32:26.409Z,2.70
2018-09-27T16:34:54.578Z,2.50
2018-09-27T16:37:22.691Z,2.60
2018-09-27T16:39:51.308Z,3.03
2018-09-27T16:42:20.093Z,3.10
2018-09-27T16:44:48.376Z,2.57
2018-09-27T16:47:16.481Z,2.77
2018-09-27T16:49:44.580Z,2.73
2018-09-27T16:52:12.955Z,3.10
2018-09-27T16:54:41.272Z,3.30
2018-09-27T16:57:10.123Z,3.00
2018-09-27T16:59:38.326Z,3.17
2018-09-27T17:02:06.400Z,3.30
2018-09-27T17:04:34.647Z,3.13
2018-09-27T17:07:02.780Z,3.00
2018-09-27T17:09:30.887Z,3.23
2018-09-27T17:11:59.017Z,3.30
2018-09-27T17:14:27.150Z,4.03
2018-09-27T17:16:55.404Z,3.40
2018-09-27T17:19:23.537Z,3.50
2018-09-27T17:21:52.543Z,3.70
2018-09-27T17:24:20.698Z,3.77
2018-09-27T17:26:48.913Z,3.83
2018-09-27T17:29:17.066Z,3.53
2018-09-27T17:31:45.177Z,3.40
2018-09-27T17:34:13.276Z,3.47
2018-09-27T17:36:41.374Z,3.43
2018-09-27T17:39:09.849Z,3.57
2018-09-27T17:41:38.326Z,3.30
2018-09-27T17:44:06.534Z,3.03
2018-09-27T17:46:34.746Z,3.20
2018-09-27T17:49:02.834Z,3.70
2018-09-27T17:51:31.125Z,3.60
2018-09-27T17:53:59.250Z,3.53
2018-09-27T17:56:27.370Z,3.60
2018-09-27T17:58:55.600Z,3.67
2018-09-27T18:01:23.714Z,4.07
2018-09-27T18:03:51.844Z,3.80
2018-09-27T18:06:19.995Z,4.40
2018-09-27T18:08:48.139Z,4.10
2018-09-27T18:11:16.289Z,3.80
2018-09-27T18:13:44.694Z,5.00
2018-09-27T18:16:12.769Z,4.40
2018-09-27T18:18:41.596Z,4.53
2018-09-27T18:21:09.711Z,4.33
2018-09-27T18:23:37.867Z,4.43
2018-09-27T18:26:06.043Z,4.63
2018-09-27T18:28:34.260Z,4.40
2018-09-27T18:31:02.424Z,4.27
2018-09-27T18:33:30.567Z,4.53
2018-09-27T18:35:58.672Z,5.17
2018-09-27T18:38:26.857Z,5.70
2018-09-27T18:40:55.170Z,5.37
2018-09-27T18:43:23.388Z,5.40
2018-09-27T18:45:51.656Z,4.90
2018-09-27T18:48:19.904Z,5.30
2018-09-27T18:50:48.055Z,6.23
2018-09-27T18:53:16.452Z,5.83
2018-09-27T18:55:44.621Z,5.63
2018-09-27T18:58:12.843Z,6.43
2018-09-27T19:00:40.971Z,6.60
2018-09-27T19:03:09.562Z,6.70
2018-09-27T19:05:37.803Z,6.20
2018-09-27T19:08:05.953Z,6.20
2018-09-27T19:10:34.035Z,6.73
2018-09-27T19:13:02.156Z,6.17
2018-09-27T19:15:30.299Z,6.87
2018-09-27T19:17:58.445Z,6.50
2018-09-27T19:20:26.568Z,7.33
2018-09-27T19:22:54.735Z,7.33
2018-09-27T19:25:22.982Z,6.87
2018-09-27T19:27:51.177Z,7.97
2018-09-27T19:30:19.342Z,7.67
2018-09-27T19:32:47.526Z,7.43
2018-09-27T19:35:15.678Z,8.27
2018-09-27T19:37:43.802Z,8.00
2018-09-27T19:40:11.944Z,9.00
2018-09-27T19:42:40.041Z,8.50
2018-09-27T19:45:08.161Z,8.93
2018-09-27T19:47:36.267Z,8.93
2018-09-27T19:50:04.672Z,8.77
2018-09-27T19:52:32.816Z,9.53
2018-09-27T19:55:00.950Z,8.83
2018-09-27T19:57:29.069Z,9.00
2018-09-27T19:59:57.231Z,9.40
2018-09-27T20:02:25.463Z,9.13
2018-09-27T20:04:53.589Z,10.13
2018-09-27T20:07:21.851Z,10.20
2018-09-27T20:09:49.951Z,9.10
2018-09-27T20:12:18.094Z,10.30
2018-09-27T20:14:46.287Z,10.27
2018-09-27T20:17:14.443Z,10.30
2018-09-27T20:19:42.619Z,9.93
2018-09-27T20:22:11.546Z,9.80
2018-09-27T20:24:39.627Z,10.43
2018-09-27T20:27:08.399Z,10.90
2018-09-27T20:29:36.556Z,10.97
2018-09-27T20:32:04.942Z,10.23
2018-09-27T20:34:33.156Z,10.90
2018-09-27T20:37:01.267Z,10.97
2018-09-27T20:39:29.457Z,10.90
2018-09-27T20:41:57.641Z,10.03
2018-09-27T20:44:25.834Z,11.93
2018-09-27T20:46:53.954Z,11.63
2018-09-27T20:49:22.077Z,12.60
2018-09-27T20:51:50.242Z,13.53
2018-09-27T20:54:18.379Z,13.37
2018-09-27T20:56:46.554Z,12.57
2018-09-27T20:59:14.748Z,13.10
2018-09-27T21:01:42.911Z,13.13
2018-09-27T21:04:11.033Z,13.20
2018-09-27T21:06:39.226Z,14.43
2018-09-27T21:09:08.249Z,13.13
2018-09-27T21:11:36.363Z,12.77
2018-09-27T21:14:04.551Z,14.57
2018-09-27T21:16:32.651Z,14.43
2018-09-27T21:19:00.861Z,15.40
2018-09-27T21:21:29.038Z,14.97
2018-09-27T21:23:57.180Z,16.60
2018-09-27T21:26:25.428Z,16.07
2018-09-27T21:28:53.559Z,15.90
2018-09-27T21:31:21.691Z,17.47
2018-09-27T21:33:49.816Z,18.60
2018-09-27T21:36:17.961Z,18.73
2018-09-27T21:38:46.136Z,17.30
2018-09-27T21:41:14.256Z,17.67
2018-09-27T21:43:42.392Z,17.77
2018-09-27T21:46:10.555Z,18.03
2018-09-27T21:48:38.754Z,17.23
2018-09-27T21:51:06.912Z,19.47
2018-09-27T21:53:35.079Z,19.97
2018-09-27T21:56:03.252Z,18.37
2018-09-27T21:58:31.451Z,20.17
2018-09-27T22:00:59.619Z,19.93
2018-09-27T22:03:27.774Z,21.17
2018-09-27T22:05:55.950Z,21.13
2018-09-27T22:08:24.119Z,22.10
2018-09-27T22:10:52.315Z,20.97
2018-09-27T22:13:20.460Z,23.63
2018-09-27T22:15:48.648Z,21.97
2018-09-27T22:18:16.825Z,21.77
2018-09-27T22:20:44.998Z,24.03
2018-09-27T22:23:13.193Z,22.80
2018-09-27T22:25:41.336Z,22.97
2018-09-27T22:28:09.521Z,25.77
2018-09-27T22:30:37.738Z,24.77
2018-09-27T22:33:05.912Z,26.93
2018-09-27T22:35:34.035Z,25.80
2018-09-27T22:38:02.138Z,28.37
2018-09-27T22:40:30.282Z,28.57
2018-09-27T22:42:58.384Z,25.37
2018-09-27T22:45:26.528Z,29.47
2018-09-27T22:47:54.727Z,26.73
2018-09-27T22:50:22.875Z,28.63
2018-09-27T22:52:50.966Z,24.90
2018-09-27T22:55:19.127Z,25.53
2018-09-27T22:57:47.224Z,25.03
2018-09-27T23:00:15.360Z,26.83
2018-09-27T23:02:43.460Z,30.33
2018-09-27T23:05:11.611Z,27.20
2018-09-27T23:07:39.700Z,27.77
2018-09-27T23:10:07.813Z,27.50
2018-09-27T23:12:35.919Z,30.23
2018-09-27T23:15:04.218Z,24.77
2018-09-27T23:17:32.315Z,25.97
2018-09-27T23:20:00.446Z,27.80
2018-09-27T23:22:28.625Z,26.33
2018-09-27T23:24:56.741Z,27.70
2018-09-27T23:27:24.866Z,26.53
2018-09-27T23:29:52.980Z,26.53
2018-09-27T23:32:21.078Z,28.20
2018-09-27T23:34:49.186Z,26.67
2018-09-27T23:37:17.287Z,28.57
2018-09-27T23:39:45.377Z,26.20
2018-09-27T23:42:13.503Z,28.53
2018-09-27T23:44:41.611Z,27.13
2018-09-27T23:47:09.723Z,28.73
2018-09-27T23:49:37.864Z,29.90
2018-09-27T23:52:06.009Z,30.33
2018-09-27T23:54:34.171Z,25.80
2018-09-27T23:57:02.280Z,24.50
2018-09-27T23:59:30.414Z,29.43
